Gibbon, Minnesota
Current Conditions -  °F | °C
As of 10:33 AM on Saturday 22 Nov 2014 (Local Time) from KULM Reporting Station
Haze Haze  
Wind Chill: 26°   Ceiling: NA
Heat Index: 34°   Visibility: 2.5mi
Dew Point: 34°   Wind: 10mph
Humidity: 100%   Direction: 210°SSW
Pressure: 29.73"   Gusts: NA
Location:  44.53°N, 94.53°W
Report Text: KULM 221633Z AUTO 21009KT 2 1/2SM BR 01/01 A2973 RMK AO2 SKY OBSCURED
Loading
Personal Weather Stations






























Interactive Weather Map New forecast layout! Learn more

10-Day Weather Forecast

Advertisements
Track Severe Weather on mobile